Cocoa Beach, FL (32931)

6:50 PM EDT on August 31, 2016 (GMT -0400)
Cocoa Beach | | Change Station

Elev 10 ft 28.32 °N, 80.62 °W | Updated 20 seconds ago

Light Rain
Light Rain
75.0 °F
Feels Like 73 °F
N
0.0
Wind Variable Wind from SSE
Gusts 0.0 mph

Today
High -- | Low -- °F
--% Chance of Precip.
Yesterday
High -- | Low -- °F
Precip. -- in
Pressure 29.90 in
Visibility 10.0 miles
Clouds Clear
Heat Index 73 °F
Dew Point 73 °F
Humidity 94%
Rainfall 0.46 in
Snow Depth Not available.
7:00 AM 7:44 PM
Waning Crescent, 0% visible
SPECI KCOF 312247Z AUTO 26005KT 10SM -RA VCTS CLR 24/23 A2990 RMK AO2 LTG DSNT E-SE
Pressure 29.90 in
Visibility 10.0 miles
Clouds Clear
Heat Index 73 °F
Dew Point 73 °F
Humidity 94%
Rainfall 0.46 in
Snow Depth Not available.
7:00 AM 7:44 PM
Waning Crescent, 0% visible
SPECI KCOF 312247Z AUTO 26005KT 10SM -RA VCTS CLR 24/23 A2990 RMK AO2 LTG DSNT E-SE
A tropical storm warning and hurricane watch is in effect for parts of the northern Florida Gulf Coast as Tropical Storm Hermine intensifies in the eastern Gulf of Mexico. A tropical storm watch is in effect for parts of the Atlantic coast of Georgia and Florida, as Hermine is expected to move near or just inland from the Southeast U.S. Coast on Friday and Friday night. Very heavy rains are possible near Hermine's path.

10-Day Weather Forecast

Almanac

Astronomy

Aug. 31, 2016 Rise Set
Actual Time
Civil Twilight
Nautical Twilight
Astronomical Twilight
Moon
Length of Visible Light
Length of Day
Tomorrow will be .
, % of the Moon is Illuminated

Today's Extremes

State Highs State Lows

Community

WunderPhotos

Upload Photos

1,936,204 photos uploaded!

WunderBlog® & News

Nearby

Air Quality

  Air Quality AQ Index Pollutant
Not available.

Snow Depth

Station Depth Elevation

Earthquake Activity

City Distance Mag. Time & Date
Minimum magnitude displayed is 2.5.

Coastal Water Temperatures

Place Temperature

Stations

Nearby Weather Stations

Station Location Temp. Windchill Dew Point Humidity Wind Precip. Elev Updated Type
                   

Watches & Warnings

There are currently no watches in effect.